sensor_id;sensor_type;location;lat;lon;timestamp;temperature;humidity
61641;HTU21D;62201;49.966;8.342;2022-11-20T00:01:45;2.43;106.69
61641;HTU21D;62201;49.966;8.342;2022-11-20T00:04:10;2.39;106.49
61641;HTU21D;62201;49.966;8.342;2022-11-20T00:06:37;2.32;106.34
61641;HTU21D;62201;49.966;8.342;2022-11-20T00:09:03;2.27;106.35
61641;HTU21D;62201;49.966;8.342;2022-11-20T00:11:29;2.24;106.68
61641;HTU21D;62201;49.966;8.342;2022-11-20T00:13:59;2.20;106.83
61641;HTU21D;62201;49.966;8.342;2022-11-20T00:16:26;2.11;106.93
61641;HTU21D;62201;49.966;8.342;2022-11-20T00:18:52;2.06;107.20
61641;HTU21D;62201;49.966;8.342;2022-11-20T00:21:23;2.02;107.46
61641;HTU21D;62201;49.966;8.342;2022-11-20T00:23:50;2.02;107.77
61641;HTU21D;62201;49.966;8.342;2022-11-20T00:26:18;2.01;107.87
61641;HTU21D;62201;49.966;8.342;2022-11-20T00:28:49;2.03;108.32
61641;HTU21D;62201;49.966;8.342;2022-11-20T00:31:16;2.02;108.26
61641;HTU21D;62201;49.966;8.342;2022-11-20T00:33:43;2.02;108.16
61641;HTU21D;62201;49.966;8.342;2022-11-20T00:36:20;2.03;108.12
61641;HTU21D;62201;49.966;8.342;2022-11-20T00:38:46;2.08;108.30
61641;HTU21D;62201;49.966;8.342;2022-11-20T00:41:14;2.06;108.15
61641;HTU21D;62201;49.966;8.342;2022-11-20T00:43:40;2.02;108.27
61641;HTU21D;62201;49.966;8.342;2022-11-20T00:46:08;2.03;108.49
61641;HTU21D;62201;49.966;8.342;2022-11-20T00:48:33;2.03;108.49
61641;HTU21D;62201;49.966;8.342;2022-11-20T00:50:59;2.05;108.41
61641;HTU21D;62201;49.966;8.342;2022-11-20T00:53:25;2.05;108.44
61641;HTU21D;62201;49.966;8.342;2022-11-20T00:55:58;2.02;108.40
61641;HTU21D;62201;49.966;8.342;2022-11-20T00:58:24;2.02;108.65
61641;HTU21D;62201;49.966;8.342;2022-11-20T01:00:50;2.05;108.88
61641;HTU21D;62201;49.966;8.342;2022-11-20T01:03:17;2.06;108.88
61641;HTU21D;62201;49.966;8.342;2022-11-20T01:05:42;2.07;109.07
61641;HTU21D;62201;49.966;8.342;2022-11-20T01:08:08;2.03;109.06
61641;HTU21D;62201;49.966;8.342;2022-11-20T01:10:33;2.03;109.24
61641;HTU21D;62201;49.966;8.342;2022-11-20T01:12:59;1.99;109.31
61641;HTU21D;62201;49.966;8.342;2022-11-20T01:15:43;1.96;109.41
61641;HTU21D;62201;49.966;8.342;2022-11-20T01:18:08;1.96;109.88
61641;HTU21D;62201;49.966;8.342;2022-11-20T01:20:35;1.94;110.06
61641;HTU21D;62201;49.966;8.342;2022-11-20T01:23:01;1.97;110.46
61641;HTU21D;62201;49.966;8.342;2022-11-20T01:25:27;2.03;110.84
61641;HTU21D;62201;49.966;8.342;2022-11-20T01:27:52;2.02;110.65
61641;HTU21D;62201;49.966;8.342;2022-11-20T01:30:18;2.00;110.53
61641;HTU21D;62201;49.966;8.342;2022-11-20T01:32:43;1.98;110.45
61641;HTU21D;62201;49.966;8.342;2022-11-20T01:35:09;1.98;110.60
61641;HTU21D;62201;49.966;8.342;2022-11-20T01:37:35;1.98;110.67
61641;HTU21D;62201;49.966;8.342;2022-11-20T01:40:00;1.98;110.78
61641;HTU21D;62201;49.966;8.342;2022-11-20T01:42:26;1.96;110.84
61641;HTU21D;62201;49.966;8.342;2022-11-20T01:48:14;1.98;111.48
61641;HTU21D;62201;49.966;8.342;2022-11-20T01:50:40;1.99;111.44
61641;HTU21D;62201;49.966;8.342;2022-11-20T01:53:09;1.95;111.16
61641;HTU21D;62201;49.966;8.342;2022-11-20T01:55:39;1.93;111.21
61641;HTU21D;62201;49.966;8.342;2022-11-20T01:58:06;1.97;111.66
61641;HTU21D;62201;49.966;8.342;2022-11-20T02:00:32;1.99;111.84
61641;HTU21D;62201;49.966;8.342;2022-11-20T02:03:00;1.97;111.67
61641;HTU21D;62201;49.966;8.342;2022-11-20T02:05:36;1.99;111.71
61641;HTU21D;62201;49.966;8.342;2022-11-20T02:08:04;2.01;111.88
61641;HTU21D;62201;49.966;8.342;2022-11-20T02:10:30;2.03;111.89
61641;HTU21D;62201;49.966;8.342;2022-11-20T02:12:57;2.02;111.78
61641;HTU21D;62201;49.966;8.342;2022-11-20T02:15:42;2.11;112.35
61641;HTU21D;62201;49.966;8.342;2022-11-20T02:18:09;2.17;112.55
61641;HTU21D;62201;49.966;8.342;2022-11-20T02:20:35;2.15;112.09
61641;HTU21D;62201;49.966;8.342;2022-11-20T02:25:47;2.21;111.79
61641;HTU21D;62201;49.966;8.342;2022-11-20T02:28:15;2.24;111.99
61641;HTU21D;62201;49.966;8.342;2022-11-20T02:30:40;2.23;111.71
61641;HTU21D;62201;49.966;8.342;2022-11-20T02:33:06;2.25;111.72
61641;HTU21D;62201;49.966;8.342;2022-11-20T02:37:59;2.24;111.57
61641;HTU21D;62201;49.966;8.342;2022-11-20T02:40:24;2.28;111.86
61641;HTU21D;62201;49.966;8.342;2022-11-20T02:42:56;2.17;111.07
61641;HTU21D;62201;49.966;8.342;2022-11-20T02:45:23;2.21;111.30
61641;HTU21D;62201;49.966;8.342;2022-11-20T02:47:49;2.20;111.39
61641;HTU21D;62201;49.966;8.342;2022-11-20T02:50:16;2.21;111.61
61641;HTU21D;62201;49.966;8.342;2022-11-20T02:52:42;2.25;111.75
61641;HTU21D;62201;49.966;8.342;2022-11-20T02:55:08;2.25;111.68
61641;HTU21D;62201;49.966;8.342;2022-11-20T02:57:33;2.26;111.62
61641;HTU21D;62201;49.966;8.342;2022-11-20T02:59:59;2.28;111.77
61641;HTU21D;62201;49.966;8.342;2022-11-20T03:02:24;2.26;111.42
61641;HTU21D;62201;49.966;8.342;2022-11-20T03:04:50;2.29;111.61
61641;HTU21D;62201;49.966;8.342;2022-11-20T03:07:15;2.34;111.76
61641;HTU21D;62201;49.966;8.342;2022-11-20T03:09:41;2.35;111.56
61641;HTU21D;62201;49.966;8.342;2022-11-20T03:12:06;2.36;111.65
61641;HTU21D;62201;49.966;8.342;2022-11-20T03:14:32;2.32;111.30
61641;HTU21D;62201;49.966;8.342;2022-11-20T03:16:57;2.32;111.32
61641;HTU21D;62201;49.966;8.342;2022-11-20T03:19:22;2.34;111.32
61641;HTU21D;62201;49.966;8.342;2022-11-20T03:21:48;2.31;111.19
61641;HTU21D;62201;49.966;8.342;2022-11-20T03:24:13;2.36;111.35
61641;HTU21D;62201;49.966;8.342;2022-11-20T03:26:39;2.36;111.24
61641;HTU21D;62201;49.966;8.342;2022-11-20T03:29:05;2.34;111.03
61641;HTU21D;62201;49.966;8.342;2022-11-20T03:31:38;2.32;111.00
61641;HTU21D;62201;49.966;8.342;2022-11-20T03:34:09;2.36;111.18
61641;HTU21D;62201;49.966;8.342;2022-11-20T03:36:37;2.37;111.40
61641;HTU21D;62201;49.966;8.342;2022-11-20T03:39:03;2.35;111.36
61641;HTU21D;62201;49.966;8.342;2022-11-20T03:41:30;2.32;110.68
61641;HTU21D;62201;49.966;8.342;2022-11-20T03:44:01;2.36;111.43
61641;HTU21D;62201;49.966;8.342;2022-11-20T03:46:28;2.40;111.42
61641;HTU21D;62201;49.966;8.342;2022-11-20T03:48:54;2.42;111.55
61641;HTU21D;62201;49.966;8.342;2022-11-20T03:51:25;2.42;111.48
61641;HTU21D;62201;49.966;8.342;2022-11-20T03:53:52;2.39;111.38
61641;HTU21D;62201;49.966;8.342;2022-11-20T03:56:23;2.40;111.50
61641;HTU21D;62201;49.966;8.342;2022-11-20T03:58:48;2.46;111.97
61641;HTU21D;62201;49.966;8.342;2022-11-20T04:01:16;2.41;111.54
61641;HTU21D;62201;49.966;8.342;2022-11-20T04:03:43;2.42;111.67
61641;HTU21D;62201;49.966;8.342;2022-11-20T04:06:16;2.45;111.78
61641;HTU21D;62201;49.966;8.342;2022-11-20T04:08:42;2.46;111.84
61641;HTU21D;62201;49.966;8.342;2022-11-20T04:13:54;2.44;111.72
61641;HTU21D;62201;49.966;8.342;2022-11-20T04:16:21;2.43;111.87
61641;HTU21D;62201;49.966;8.342;2022-11-20T04:18:47;2.44;111.92
61641;HTU21D;62201;49.966;8.342;2022-11-20T04:21:12;2.42;112.03
61641;HTU21D;62201;49.966;8.342;2022-11-20T04:23:38;2.45;112.42
61641;HTU21D;62201;49.966;8.342;2022-11-20T04:26:11;2.47;112.52
61641;HTU21D;62201;49.966;8.342;2022-11-20T04:28:37;2.47;112.34
61641;HTU21D;62201;49.966;8.342;2022-11-20T04:33:29;2.55;112.51
61641;HTU21D;62201;49.966;8.342;2022-11-20T04:35:55;2.56;112.32
61641;HTU21D;62201;49.966;8.342;2022-11-20T04:38:20;2.57;112.18
61641;HTU21D;62201;49.966;8.342;2022-11-20T04:40:45;2.57;112.10
61641;HTU21D;62201;49.966;8.342;2022-11-20T04:43:11;2.57;111.87
61641;HTU21D;62201;49.966;8.342;2022-11-20T04:45:36;2.59;111.81
61641;HTU21D;62201;49.966;8.342;2022-11-20T04:48:02;2.61;111.55
61641;HTU21D;62201;49.966;8.342;2022-11-20T04:50:27;2.60;111.68
61641;HTU21D;62201;49.966;8.342;2022-11-20T04:52:52;2.57;111.29
61641;HTU21D;62201;49.966;8.342;2022-11-20T04:55:18;2.57;111.45
61641;HTU21D;62201;49.966;8.342;2022-11-20T04:57:43;2.62;111.83
61641;HTU21D;62201;49.966;8.342;2022-11-20T05:00:09;2.57;111.61
61641;HTU21D;62201;49.966;8.342;2022-11-20T05:02:34;2.62;112.00
61641;HTU21D;62201;49.966;8.342;2022-11-20T05:05:00;2.68;112.46
61641;HTU21D;62201;49.966;8.342;2022-11-20T05:07:25;2.64;112.16
61641;HTU21D;62201;49.966;8.342;2022-11-20T05:09:50;2.68;112.40
61641;HTU21D;62201;49.966;8.342;2022-11-20T05:12:16;2.65;112.12
61641;HTU21D;62201;49.966;8.342;2022-11-20T05:14:41;2.60;111.94
61641;HTU21D;62201;49.966;8.342;2022-11-20T05:17:10;2.58;112.21
61641;HTU21D;62201;49.966;8.342;2022-11-20T05:19:35;2.61;112.41
61641;HTU21D;62201;49.966;8.342;2022-11-20T05:22:00;2.68;112.84
61641;HTU21D;62201;49.966;8.342;2022-11-20T05:24:26;2.65;112.35
61641;HTU21D;62201;49.966;8.342;2022-11-20T05:26:51;2.68;112.59
61641;HTU21D;62201;49.966;8.342;2022-11-20T05:29:16;2.70;112.81
61641;HTU21D;62201;49.966;8.342;2022-11-20T05:31:42;2.69;112.58
61641;HTU21D;62201;49.966;8.342;2022-11-20T05:34:07;2.68;112.34
61641;HTU21D;62201;49.966;8.342;2022-11-20T05:36:33;2.70;112.44
61641;HTU21D;62201;49.966;8.342;2022-11-20T05:38:58;2.68;112.05
61641;HTU21D;62201;49.966;8.342;2022-11-20T05:41:24;2.66;111.82
61641;HTU21D;62201;49.966;8.342;2022-11-20T05:43:50;2.62;111.64
61641;HTU21D;62201;49.966;8.342;2022-11-20T05:46:18;2.64;111.94
61641;HTU21D;62201;49.966;8.342;2022-11-20T05:48:45;2.64;111.90
61641;HTU21D;62201;49.966;8.342;2022-11-20T05:51:16;2.67;112.10
61641;HTU21D;62201;49.966;8.342;2022-11-20T05:53:42;2.65;112.01
61641;HTU21D;62201;49.966;8.342;2022-11-20T05:56:11;2.64;112.06
61641;HTU21D;62201;49.966;8.342;2022-11-20T05:58:37;2.60;112.19
61641;HTU21D;62201;49.966;8.342;2022-11-20T06:03:30;2.59;112.61
61641;HTU21D;62201;49.966;8.342;2022-11-20T06:05:55;2.67;113.02
61641;HTU21D;62201;49.966;8.342;2022-11-20T06:08:20;2.68;112.90
61641;HTU21D;62201;49.966;8.342;2022-11-20T06:10:46;2.67;112.41
61641;HTU21D;62201;49.966;8.342;2022-11-20T06:13:11;2.72;112.94
61641;HTU21D;62201;49.966;8.342;2022-11-20T06:15:36;2.74;112.92
61641;HTU21D;62201;49.966;8.342;2022-11-20T06:18:02;2.76;112.79
61641;HTU21D;62201;49.966;8.342;2022-11-20T06:20:27;2.70;112.61
61641;HTU21D;62201;49.966;8.342;2022-11-20T06:22:53;2.66;112.35
61641;HTU21D;62201;49.966;8.342;2022-11-20T06:25:18;2.68;112.59
61641;HTU21D;62201;49.966;8.342;2022-11-20T06:27:43;2.70;112.92
61641;HTU21D;62201;49.966;8.342;2022-11-20T06:30:09;2.68;112.67
61641;HTU21D;62201;49.966;8.342;2022-11-20T06:32:34;2.70;112.74
61641;HTU21D;62201;49.966;8.342;2022-11-20T06:35:00;2.73;112.98
61641;HTU21D;62201;49.966;8.342;2022-11-20T06:37:25;2.69;112.45
61641;HTU21D;62201;49.966;8.342;2022-11-20T06:39:50;2.73;113.03
61641;HTU21D;62201;49.966;8.342;2022-11-20T06:42:16;2.75;112.99
61641;HTU21D;62201;49.966;8.342;2022-11-20T06:44:41;2.76;112.89
61641;HTU21D;62201;49.966;8.342;2022-11-20T06:47:07;2.75;112.73
61641;HTU21D;62201;49.966;8.342;2022-11-20T06:49:32;2.79;113.09
61641;HTU21D;62201;49.966;8.342;2022-11-20T06:51:59;2.78;112.79
61641;HTU21D;62201;49.966;8.342;2022-11-20T06:54:24;2.80;113.16
61641;HTU21D;62201;49.966;8.342;2022-11-20T06:56:50;2.79;113.09
61641;HTU21D;62201;49.966;8.342;2022-11-20T06:59:15;2.80;113.06
61641;HTU21D;62201;49.966;8.342;2022-11-20T07:01:41;2.81;113.12
61641;HTU21D;62201;49.966;8.342;2022-11-20T07:04:06;2.84;113.23
61641;HTU21D;62201;49.966;8.342;2022-11-20T07:06:31;2.83;113.08
61641;HTU21D;62201;49.966;8.342;2022-11-20T07:08:57;2.81;113.06
61641;HTU21D;62201;49.966;8.342;2022-11-20T07:11:23;2.82;113.27
61641;HTU21D;62201;49.966;8.342;2022-11-20T07:13:49;2.79;113.21
61641;HTU21D;62201;49.966;8.342;2022-11-20T07:16:14;2.82;113.35
61641;HTU21D;62201;49.966;8.342;2022-11-20T07:18:40;2.83;113.38
61641;HTU21D;62201;49.966;8.342;2022-11-20T07:21:07;2.87;113.67
61641;HTU21D;62201;49.966;8.342;2022-11-20T07:23:33;2.87;113.45
61641;HTU21D;62201;49.966;8.342;2022-11-20T07:26:06;2.86;113.36
61641;HTU21D;62201;49.966;8.342;2022-11-20T07:28:31;2.85;113.21
61641;HTU21D;62201;49.966;8.342;2022-11-20T07:30:57;2.87;113.37
61641;HTU21D;62201;49.966;8.342;2022-11-20T07:33:22;2.88;113.32
61641;HTU21D;62201;49.966;8.342;2022-11-20T07:35:48;2.93;113.67
61641;HTU21D;62201;49.966;8.342;2022-11-20T07:38:13;2.91;113.51
61641;HTU21D;62201;49.966;8.342;2022-11-20T07:40:38;2.97;113.71
61641;HTU21D;62201;49.966;8.342;2022-11-20T07:43:04;3.01;113.65
61641;HTU21D;62201;49.966;8.342;2022-11-20T07:45:29;3.05;113.69
61641;HTU21D;62201;49.966;8.342;2022-11-20T07:47:54;3.05;113.24
61641;HTU21D;62201;49.966;8.342;2022-11-20T07:50:20;3.12;113.61
61641;HTU21D;62201;49.966;8.342;2022-11-20T07:52:45;3.11;113.04
61641;HTU21D;62201;49.966;8.342;2022-11-20T07:55:11;3.12;112.91
61641;HTU21D;62201;49.966;8.342;2022-11-20T07:57:37;3.16;112.86
61641;HTU21D;62201;49.966;8.342;2022-11-20T08:00:04;3.15;112.44
61641;HTU21D;62201;49.966;8.342;2022-11-20T08:02:29;3.11;111.90
61641;HTU21D;62201;49.966;8.342;2022-11-20T08:04:55;3.14;112.12
61641;HTU21D;62201;49.966;8.342;2022-11-20T08:07:20;3.17;112.29
61641;HTU21D;62201;49.966;8.342;2022-11-20T08:09:46;3.21;112.34
61641;HTU21D;62201;49.966;8.342;2022-11-20T08:12:19;3.16;111.72
61641;HTU21D;62201;49.966;8.342;2022-11-20T08:15:04;3.17;112.02
61641;HTU21D;62201;49.966;8.342;2022-11-20T08:17:30;3.19;111.72
61641;HTU21D;62201;49.966;8.342;2022-11-20T08:19:55;3.23;111.65
61641;HTU21D;62201;49.966;8.342;2022-11-20T08:22:21;3.21;111.60
61641;HTU21D;62201;49.966;8.342;2022-11-20T08:24:47;3.20;111.23
61641;HTU21D;62201;49.966;8.342;2022-11-20T08:27:13;3.30;111.65
61641;HTU21D;62201;49.966;8.342;2022-11-20T08:29:38;3.38;111.52
61641;HTU21D;62201;49.966;8.342;2022-11-20T08:32:04;3.46;111.97
61641;HTU21D;62201;49.966;8.342;2022-11-20T08:34:29;3.49;111.24
61641;HTU21D;62201;49.966;8.342;2022-11-20T08:36:55;3.48;111.23
61641;HTU21D;62201;49.966;8.342;2022-11-20T08:39:20;3.44;110.56
61641;HTU21D;62201;49.966;8.342;2022-11-20T08:41:45;3.50;111.26
61641;HTU21D;62201;49.966;8.342;2022-11-20T08:44:11;3.47;109.97
61641;HTU21D;62201;49.966;8.342;2022-11-20T08:46:39;3.45;110.26
61641;HTU21D;62201;49.966;8.342;2022-11-20T08:49:08;3.53;110.84
61641;HTU21D;62201;49.966;8.342;2022-11-20T08:51:34;3.58;110.34
61641;HTU21D;62201;49.966;8.342;2022-11-20T08:54:00;3.55;109.48
61641;HTU21D;62201;49.966;8.342;2022-11-20T08:56:25;3.72;110.51
61641;HTU21D;62201;49.966;8.342;2022-11-20T08:58:51;3.76;110.22
61641;HTU21D;62201;49.966;8.342;2022-11-20T09:01:20;3.75;108.45
61641;HTU21D;62201;49.966;8.342;2022-11-20T09:03:46;3.74;108.23
61641;HTU21D;62201;49.966;8.342;2022-11-20T09:06:12;3.74;108.67
61641;HTU21D;62201;49.966;8.342;2022-11-20T09:08:38;3.76;108.07
61641;HTU21D;62201;49.966;8.342;2022-11-20T09:11:04;3.77;107.83
61641;HTU21D;62201;49.966;8.342;2022-11-20T09:13:30;3.79;107.97
61641;HTU21D;62201;49.966;8.342;2022-11-20T09:16:01;3.77;106.98
61641;HTU21D;62201;49.966;8.342;2022-11-20T09:18:28;3.75;106.61
61641;HTU21D;62201;49.966;8.342;2022-11-20T09:21:00;3.73;105.73
61641;HTU21D;62201;49.966;8.342;2022-11-20T09:23:27;3.80;107.59
61641;HTU21D;62201;49.966;8.342;2022-11-20T09:25:55;3.88;108.44
61641;HTU21D;62201;49.966;8.342;2022-11-20T09:28:27;3.86;107.70
61641;HTU21D;62201;49.966;8.342;2022-11-20T09:30:52;3.94;108.80
61641;HTU21D;62201;49.966;8.342;2022-11-20T09:33:18;3.95;107.85
61641;HTU21D;62201;49.966;8.342;2022-11-20T09:35:43;3.95;108.65
61641;HTU21D;62201;49.966;8.342;2022-11-20T09:38:09;3.95;108.64
61641;HTU21D;62201;49.966;8.342;2022-11-20T09:40:39;3.93;108.27
61641;HTU21D;62201;49.966;8.342;2022-11-20T09:43:19;3.95;108.16
61641;HTU21D;62201;49.966;8.342;2022-11-20T09:48:52;4.15;108.92
61641;HTU21D;62201;49.966;8.342;2022-11-20T09:51:46;4.17;108.04
61641;HTU21D;62201;49.966;8.342;2022-11-20T09:54:33;4.24;108.27
61641;HTU21D;62201;49.966;8.342;2022-11-20T09:57:03;4.31;108.57
61641;HTU21D;62201;49.966;8.342;2022-11-20T09:59:43;4.36;108.72
61641;HTU21D;62201;49.966;8.342;2022-11-20T10:04:55;4.53;107.20
61641;HTU21D;62201;49.966;8.342;2022-11-20T10:10:35;4.46;106.95
61641;HTU21D;62201;49.966;8.342;2022-11-20T10:16:17;4.47;108.07
61641;HTU21D;62201;49.966;8.342;2022-11-20T10:22:01;4.53;107.75
61641;HTU21D;62201;49.966;8.342;2022-11-20T10:24:56;4.52;108.12
61641;HTU21D;62201;49.966;8.342;2022-11-20T10:30:43;4.59;107.69
61641;HTU21D;62201;49.966;8.342;2022-11-20T10:33:22;4.61;107.53
61641;HTU21D;62201;49.966;8.342;2022-11-20T10:38:31;4.51;106.84
61641;HTU21D;62201;49.966;8.342;2022-11-20T10:41:02;4.48;107.84
61641;HTU21D;62201;49.966;8.342;2022-11-20T10:43:48;4.44;107.49
61641;HTU21D;62201;49.966;8.342;2022-11-20T10:46:18;4.44;108.00
61641;HTU21D;62201;49.966;8.342;2022-11-20T10:48:45;4.49;108.44
61641;HTU21D;62201;49.966;8.342;2022-11-20T10:51:37;4.53;108.94
61641;HTU21D;62201;49.966;8.342;2022-11-20T10:56:52;4.62;108.71
61641;HTU21D;62201;49.966;8.342;2022-11-20T11:02:32;4.72;108.09
61641;HTU21D;62201;49.966;8.342;2022-11-20T11:05:48;4.74;107.88
61641;HTU21D;62201;49.966;8.342;2022-11-20T11:07:54;4.84;108.46
61641;HTU21D;62201;49.966;8.342;2022-11-20T11:10:22;4.96;108.05
61641;HTU21D;62201;49.966;8.342;2022-11-20T11:12:49;5.01;108.06
61641;HTU21D;62201;49.966;8.342;2022-11-20T11:15:45;5.04;107.25
61641;HTU21D;62201;49.966;8.342;2022-11-20T11:18:11;5.07;107.16
61641;HTU21D;62201;49.966;8.342;2022-11-20T11:20:36;5.02;105.94
61641;HTU21D;62201;49.966;8.342;2022-11-20T11:23:02;5.01;106.29
61641;HTU21D;62201;49.966;8.342;2022-11-20T11:25:34;5.06;107.11
61641;HTU21D;62201;49.966;8.342;2022-11-20T11:28:17;5.11;107.43
61641;HTU21D;62201;49.966;8.342;2022-11-20T11:30:44;5.19;107.44
61641;HTU21D;62201;49.966;8.342;2022-11-20T11:33:17;5.20;106.99
61641;HTU21D;62201;49.966;8.342;2022-11-20T11:35:46;5.25;107.47
61641;HTU21D;62201;49.966;8.342;2022-11-20T11:38:27;5.34;107.66
61641;HTU21D;62201;49.966;8.342;2022-11-20T11:40:54;5.36;106.44
61641;HTU21D;62201;49.966;8.342;2022-11-20T11:43:31;5.38;106.05
61641;HTU21D;62201;49.966;8.342;2022-11-20T11:46:29;5.53;105.90
61641;HTU21D;62201;49.966;8.342;2022-11-20T11:49:00;5.59;103.01
61641;HTU21D;62201;49.966;8.342;2022-11-20T11:53:59;5.74;104.61
61641;HTU21D;62201;49.966;8.342;2022-11-20T11:56:26;5.69;102.25
61641;HTU21D;62201;49.966;8.342;2022-11-20T11:58:57;5.65;102.30
61641;HTU21D;62201;49.966;8.342;2022-11-20T12:06:44;6.09;105.31
61641;HTU21D;62201;49.966;8.342;2022-11-20T12:09:11;6.19;103.83
61641;HTU21D;62201;49.966;8.342;2022-11-20T12:11:58;6.26;101.26
61641;HTU21D;62201;49.966;8.342;2022-11-20T12:14:43;6.36;100.19
61641;HTU21D;62201;49.966;8.342;2022-11-20T12:17:12;6.26;99.56
61641;HTU21D;62201;49.966;8.342;2022-11-20T12:19:38;6.21;101.17
61641;HTU21D;62201;49.966;8.342;2022-11-20T12:25:18;6.00;99.97
61641;HTU21D;62201;49.966;8.342;2022-11-20T12:30:57;5.90;102.88
61641;HTU21D;62201;49.966;8.342;2022-11-20T12:36:13;5.74;103.78
61641;HTU21D;62201;49.966;8.342;2022-11-20T12:38:50;5.75;104.67
61641;HTU21D;62201;49.966;8.342;2022-11-20T12:58:37;6.19;101.96
61641;HTU21D;62201;49.966;8.342;2022-11-20T13:01:25;6.30;103.66
61641;HTU21D;62201;49.966;8.342;2022-11-20T13:07:07;6.25;103.01
61641;HTU21D;62201;49.966;8.342;2022-11-20T13:09:37;6.24;103.49
61641;HTU21D;62201;49.966;8.342;2022-11-20T13:12:15;6.12;102.49
61641;HTU21D;62201;49.966;8.342;2022-11-20T13:14:56;6.07;103.79
61641;HTU21D;62201;49.966;8.342;2022-11-20T13:17:33;5.98;104.14
61641;HTU21D;62201;49.966;8.342;2022-11-20T13:20:02;5.95;104.94
61641;HTU21D;62201;49.966;8.342;2022-11-20T13:22:43;5.83;104.79
61641;HTU21D;62201;49.966;8.342;2022-11-20T13:25:10;5.74;106.29
61641;HTU21D;62201;49.966;8.342;2022-11-20T13:27:36;5.66;106.86
61641;HTU21D;62201;49.966;8.342;2022-11-20T13:30:14;5.62;107.91
61641;HTU21D;62201;49.966;8.342;2022-11-20T13:33:02;5.55;108.23
61641;HTU21D;62201;49.966;8.342;2022-11-20T13:38:04;5.54;109.63
61641;HTU21D;62201;49.966;8.342;2022-11-20T13:40:30;5.56;110.15
61641;HTU21D;62201;49.966;8.342;2022-11-20T13:43:04;5.66;110.59
61641;HTU21D;62201;49.966;8.342;2022-11-20T13:45:32;5.70;110.38
61641;HTU21D;62201;49.966;8.342;2022-11-20T13:48:03;5.81;110.72
61641;HTU21D;62201;49.966;8.342;2022-11-20T13:55:39;5.79;110.10
61641;HTU21D;62201;49.966;8.342;2022-11-20T14:03:23;5.81;110.74
61641;HTU21D;62201;49.966;8.342;2022-11-20T14:05:59;5.79;110.97
61641;HTU21D;62201;49.966;8.342;2022-11-20T14:08:40;5.78;110.75
61641;HTU21D;62201;49.966;8.342;2022-11-20T14:11:19;5.81;111.13
61641;HTU21D;62201;49.966;8.342;2022-11-20T14:16:22;5.86;111.50
61641;HTU21D;62201;49.966;8.342;2022-11-20T14:18:48;5.89;111.43
61641;HTU21D;62201;49.966;8.342;2022-11-20T14:21:29;5.85;110.89
61641;HTU21D;62201;49.966;8.342;2022-11-20T14:24:06;5.84;111.18
61641;HTU21D;62201;49.966;8.342;2022-11-20T14:26:32;5.72;110.49
61641;HTU21D;62201;49.966;8.342;2022-11-20T14:28:58;5.76;111.18
61641;HTU21D;62201;49.966;8.342;2022-11-20T14:31:25;5.74;111.39
61641;HTU21D;62201;49.966;8.342;2022-11-20T14:33:53;5.77;112.03
61641;HTU21D;62201;49.966;8.342;2022-11-20T14:36:24;5.77;112.08
61641;HTU21D;62201;49.966;8.342;2022-11-20T14:38:51;5.78;111.68
61641;HTU21D;62201;49.966;8.342;2022-11-20T14:41:22;5.82;112.34
61641;HTU21D;62201;49.966;8.342;2022-11-20T14:43:58;5.80;111.83
61641;HTU21D;62201;49.966;8.342;2022-11-20T14:46:25;5.76;111.61
61641;HTU21D;62201;49.966;8.342;2022-11-20T14:48:57;5.76;111.86
61641;HTU21D;62201;49.966;8.342;2022-11-20T14:51:37;5.78;112.04
61641;HTU21D;62201;49.966;8.342;2022-11-20T14:54:18;5.76;112.15
61641;HTU21D;62201;49.966;8.342;2022-11-20T14:56:57;5.77;112.12
61641;HTU21D;62201;49.966;8.342;2022-11-20T14:59:30;5.76;112.00
61641;HTU21D;62201;49.966;8.342;2022-11-20T15:02:16;5.75;111.92
61641;HTU21D;62201;49.966;8.342;2022-11-20T15:04:46;5.77;112.39
61641;HTU21D;62201;49.966;8.342;2022-11-20T15:07:27;5.80;112.57
61641;HTU21D;62201;49.966;8.342;2022-11-20T15:10:05;5.80;112.61
61641;HTU21D;62201;49.966;8.342;2022-11-20T15:12:33;5.79;112.84
61641;HTU21D;62201;49.966;8.342;2022-11-20T15:15:00;5.80;113.01
61641;HTU21D;62201;49.966;8.342;2022-11-20T15:17:26;5.76;112.98
61641;HTU21D;62201;49.966;8.342;2022-11-20T15:19:52;5.72;113.09
61641;HTU21D;62201;49.966;8.342;2022-11-20T15:22:18;5.69;113.32
61641;HTU21D;62201;49.966;8.342;2022-11-20T15:24:44;5.68;113.57
61641;HTU21D;62201;49.966;8.342;2022-11-20T15:27:10;5.66;113.77
61641;HTU21D;62201;49.966;8.342;2022-11-20T15:29:35;5.67;113.98
61641;HTU21D;62201;49.966;8.342;2022-11-20T15:32:01;5.68;114.31
61641;HTU21D;62201;49.966;8.342;2022-11-20T15:34:27;5.69;114.29
61641;HTU21D;62201;49.966;8.342;2022-11-20T15:36:52;5.69;114.48
61641;HTU21D;62201;49.966;8.342;2022-11-20T15:39:18;5.69;114.38
61641;HTU21D;62201;49.966;8.342;2022-11-20T15:41:43;5.67;114.41
61641;HTU21D;62201;49.966;8.342;2022-11-20T15:44:09;5.64;114.46
61641;HTU21D;62201;49.966;8.342;2022-11-20T15:46:37;5.63;114.42
61641;HTU21D;62201;49.966;8.342;2022-11-20T15:49:05;5.59;114.61
61641;HTU21D;62201;49.966;8.342;2022-11-20T15:51:37;5.55;114.61
61641;HTU21D;62201;49.966;8.342;2022-11-20T15:54:18;5.54;114.83
61641;HTU21D;62201;49.966;8.342;2022-11-20T15:56:46;5.51;114.94
61641;HTU21D;62201;49.966;8.342;2022-11-20T15:59:11;5.52;115.11
61641;HTU21D;62201;49.966;8.342;2022-11-20T16:01:39;5.51;115.28
61641;HTU21D;62201;49.966;8.342;2022-11-20T16:04:14;5.52;115.44
61641;HTU21D;62201;49.966;8.342;2022-11-20T16:06:40;5.50;115.34
61641;HTU21D;62201;49.966;8.342;2022-11-20T16:09:06;5.51;115.63
61641;HTU21D;62201;49.966;8.342;2022-11-20T16:11:32;5.50;115.60
61641;HTU21D;62201;49.966;8.342;2022-11-20T16:13:57;5.51;115.57
61641;HTU21D;62201;49.966;8.342;2022-11-20T16:16:41;5.52;115.66
61641;HTU21D;62201;49.966;8.342;2022-11-20T16:19:12;5.53;115.63
61641;HTU21D;62201;49.966;8.342;2022-11-20T16:21:37;5.52;115.79
61641;HTU21D;62201;49.966;8.342;2022-11-20T16:24:06;5.52;115.79
61641;HTU21D;62201;49.966;8.342;2022-11-20T16:26:32;5.54;115.94
61641;HTU21D;62201;49.966;8.342;2022-11-20T16:28:59;5.56;116.07
61641;HTU21D;62201;49.966;8.342;2022-11-20T16:31:24;5.57;116.04
61641;HTU21D;62201;49.966;8.342;2022-11-20T16:33:51;5.55;115.81
61641;HTU21D;62201;49.966;8.342;2022-11-20T16:36:17;5.53;115.60
61641;HTU21D;62201;49.966;8.342;2022-11-20T16:38:42;5.54;115.87
61641;HTU21D;62201;49.966;8.342;2022-11-20T16:41:09;5.59;116.16
61641;HTU21D;62201;49.966;8.342;2022-11-20T16:43:59;5.60;116.25
61641;HTU21D;62201;49.966;8.342;2022-11-20T16:46:28;5.57;115.96
61641;HTU21D;62201;49.966;8.342;2022-11-20T16:49:04;5.59;116.06
61641;HTU21D;62201;49.966;8.342;2022-11-20T16:51:32;5.53;115.86
61641;HTU21D;62201;49.966;8.342;2022-11-20T16:54:00;5.53;115.92
61641;HTU21D;62201;49.966;8.342;2022-11-20T16:56:26;5.52;116.02
61641;HTU21D;62201;49.966;8.342;2022-11-20T16:58:54;5.51;116.14
61641;HTU21D;62201;49.966;8.342;2022-11-20T17:01:21;5.55;116.35